sensor_id;sensor_type;location;lat;lon;timestamp;pressure;altitude;pressure_sealevel;temperature;humidity
9764;BME280;4921;43.214;27.936;2022-08-02T00:02:05;100544.81;;;25.45;79.80
9764;BME280;4921;43.214;27.936;2022-08-02T00:04:32;100541.94;;;25.47;79.48
9764;BME280;4921;43.214;27.936;2022-08-02T00:06:59;100539.84;;;25.49;78.89
9764;BME280;4921;43.214;27.936;2022-08-02T00:09:26;100539.59;;;25.50;79.02
9764;BME280;4921;43.214;27.936;2022-08-02T00:11:53;100539.84;;;25.49;78.94
9764;BME280;4921;43.214;27.936;2022-08-02T00:14:20;100535.84;;;25.51;78.43
9764;BME280;4921;43.214;27.936;2022-08-02T00:16:47;100543.72;;;25.53;77.78
9764;BME280;4921;43.214;27.936;2022-08-02T00:19:15;100539.97;;;25.54;77.35
9764;BME280;4921;43.214;27.936;2022-08-02T00:21:42;100539.16;;;25.53;76.87
9764;BME280;4921;43.214;27.936;2022-08-02T00:24:09;100542.91;;;25.52;76.48
9764;BME280;4921;43.214;27.936;2022-08-02T00:26:36;100544.75;;;25.52;76.01
9764;BME280;4921;43.214;27.936;2022-08-02T00:29:03;100546.44;;;25.53;75.02
9764;BME280;4921;43.214;27.936;2022-08-02T00:31:30;100545.81;;;25.51;74.40
9764;BME280;4921;43.214;27.936;2022-08-02T00:33:57;100545.81;;;25.51;74.30
9764;BME280;4921;43.214;27.936;2022-08-02T00:36:26;100542.53;;;25.49;73.28
9764;BME280;4921;43.214;27.936;2022-08-02T00:38:53;100543.19;;;25.44;73.67
9764;BME280;4921;43.214;27.936;2022-08-02T00:41:21;100555.00;;;25.43;73.62
9764;BME280;4921;43.214;27.936;2022-08-02T00:43:49;100562.44;;;25.41;73.46
9764;BME280;4921;43.214;27.936;2022-08-02T00:46:18;100559.97;;;25.40;73.54
9764;BME280;4921;43.214;27.936;2022-08-02T00:48:46;100559.13;;;25.39;73.58
9764;BME280;4921;43.214;27.936;2022-08-02T00:51:13;100555.25;;;25.35;73.27
9764;BME280;4921;43.214;27.936;2022-08-02T00:53:42;100567.22;;;25.39;73.71
9764;BME280;4921;43.214;27.936;2022-08-02T00:56:09;100564.53;;;25.39;73.86
9764;BME280;4921;43.214;27.936;2022-08-02T00:58:36;100563.31;;;25.35;73.45
9764;BME280;4921;43.214;27.936;2022-08-02T01:01:03;100563.75;;;25.32;72.84
9764;BME280;4921;43.214;27.936;2022-08-02T01:03:30;100566.06;;;25.29;73.69
9764;BME280;4921;43.214;27.936;2022-08-02T01:05:57;100579.34;;;25.24;73.19
9764;BME280;4921;43.214;27.936;2022-08-02T01:08:24;100573.13;;;25.23;73.72
9764;BME280;4921;43.214;27.936;2022-08-02T01:10:52;100566.34;;;25.21;73.93
9764;BME280;4921;43.214;27.936;2022-08-02T01:13:19;100567.97;;;25.22;73.78
9764;BME280;4921;43.214;27.936;2022-08-02T01:15:54;100569.81;;;25.21;74.21
9764;BME280;4921;43.214;27.936;2022-08-02T01:18:27;100554.19;;;25.12;74.20
9764;BME280;4921;43.214;27.936;2022-08-02T01:21:13;100574.41;;;25.21;74.20
9764;BME280;4921;43.214;27.936;2022-08-02T01:23:58;100574.59;;;25.19;74.61
9764;BME280;4921;43.214;27.936;2022-08-02T01:26:38;100575.91;;;25.17;74.95
9764;BME280;4921;43.214;27.936;2022-08-02T01:29:10;100568.00;;;25.15;75.31
9764;BME280;4921;43.214;27.936;2022-08-02T01:31:43;100573.63;;;25.14;75.63
9764;BME280;4921;43.214;27.936;2022-08-02T01:34:17;100573.84;;;25.12;75.82
9764;BME280;4921;43.214;27.936;2022-08-02T01:36:48;100572.41;;;25.10;75.72
9764;BME280;4921;43.214;27.936;2022-08-02T01:39:20;100578.81;;;25.09;75.88
9764;BME280;4921;43.214;27.936;2022-08-02T01:41:49;100577.84;;;25.03;76.61
9764;BME280;4921;43.214;27.936;2022-08-02T01:44:20;100579.28;;;25.06;76.79
9764;BME280;4921;43.214;27.936;2022-08-02T01:46:48;100577.38;;;25.06;76.82
9764;BME280;4921;43.214;27.936;2022-08-02T01:49:18;100575.53;;;25.07;76.36
9764;BME280;4921;43.214;27.936;2022-08-02T01:51:47;100573.28;;;25.04;75.89
9764;BME280;4921;43.214;27.936;2022-08-02T01:54:34;100569.16;;;25.01;76.15
9764;BME280;4921;43.214;27.936;2022-08-02T01:57:04;100572.47;;;25.03;75.99
9764;BME280;4921;43.214;27.936;2022-08-02T01:59:34;100568.56;;;24.99;75.77
9764;BME280;4921;43.214;27.936;2022-08-02T02:02:06;100573.94;;;24.99;74.41
9764;BME280;4921;43.214;27.936;2022-08-02T02:04:34;100567.13;;;24.96;74.52
9764;BME280;4921;43.214;27.936;2022-08-02T02:07:03;100566.94;;;24.91;74.66
9764;BME280;4921;43.214;27.936;2022-08-02T02:09:36;100567.34;;;24.95;74.69
9764;BME280;4921;43.214;27.936;2022-08-02T02:12:03;100571.06;;;24.94;73.73
9764;BME280;4921;43.214;27.936;2022-08-02T02:14:34;100575.44;;;24.88;72.75
9764;BME280;4921;43.214;27.936;2022-08-02T02:17:02;100574.84;;;24.86;72.80
9764;BME280;4921;43.214;27.936;2022-08-02T02:19:29;100578.38;;;24.80;72.91
9764;BME280;4921;43.214;27.936;2022-08-02T02:21:58;100580.47;;;24.78;73.14
9764;BME280;4921;43.214;27.936;2022-08-02T02:24:26;100577.38;;;24.75;73.40
9764;BME280;4921;43.214;27.936;2022-08-02T02:26:53;100575.09;;;24.65;74.37
9764;BME280;4921;43.214;27.936;2022-08-02T02:29:21;100578.84;;;24.64;74.67
9764;BME280;4921;43.214;27.936;2022-08-02T02:31:54;100581.81;;;24.56;75.23
9764;BME280;4921;43.214;27.936;2022-08-02T02:34:25;100580.50;;;24.59;75.73
9764;BME280;4921;43.214;27.936;2022-08-02T02:36:53;100579.75;;;24.52;76.02
9764;BME280;4921;43.214;27.936;2022-08-02T02:39:22;100582.00;;;24.55;75.86
9764;BME280;4921;43.214;27.936;2022-08-02T02:41:52;100582.44;;;24.52;75.84
9764;BME280;4921;43.214;27.936;2022-08-02T02:44:21;100590.88;;;24.55;75.92
9764;BME280;4921;43.214;27.936;2022-08-02T02:46:52;100590.50;;;24.52;76.42
9764;BME280;4921;43.214;27.936;2022-08-02T02:49:20;100593.59;;;24.49;76.37
9764;BME280;4921;43.214;27.936;2022-08-02T02:51:49;100589.66;;;24.51;76.00
9764;BME280;4921;43.214;27.936;2022-08-02T02:54:17;100594.44;;;24.49;76.14
9764;BME280;4921;43.214;27.936;2022-08-02T02:56:44;100594.25;;;24.44;76.54
9764;BME280;4921;43.214;27.936;2022-08-02T02:59:12;100594.47;;;24.36;76.86
9764;BME280;4921;43.214;27.936;2022-08-02T03:01:40;100596.34;;;24.36;77.01
9764;BME280;4921;43.214;27.936;2022-08-02T03:04:10;100600.09;;;24.35;77.31
9764;BME280;4921;43.214;27.936;2022-08-02T03:06:39;100596.97;;;24.31;77.24
9764;BME280;4921;43.214;27.936;2022-08-02T03:09:06;100602.59;;;24.23;77.78
9764;BME280;4921;43.214;27.936;2022-08-02T03:11:36;100612.50;;;24.22;78.18
9764;BME280;4921;43.214;27.936;2022-08-02T03:14:06;100608.38;;;24.20;78.36
9764;BME280;4921;43.214;27.936;2022-08-02T03:16:41;100607.97;;;24.23;78.26
9764;BME280;4921;43.214;27.936;2022-08-02T03:19:09;100612.94;;;24.19;78.36
9764;BME280;4921;43.214;27.936;2022-08-02T03:21:37;100604.88;;;24.19;77.93
9764;BME280;4921;43.214;27.936;2022-08-02T03:24:05;100613.34;;;24.23;77.55
9764;BME280;4921;43.214;27.936;2022-08-02T03:26:32;100607.75;;;24.18;78.26
9764;BME280;4921;43.214;27.936;2022-08-02T03:28:59;100606.50;;;24.20;78.20
9764;BME280;4921;43.214;27.936;2022-08-02T03:31:26;100608.38;;;24.20;78.29
9764;BME280;4921;43.214;27.936;2022-08-02T03:33:54;100616.66;;;24.12;78.76
9764;BME280;4921;43.214;27.936;2022-08-02T03:36:25;100614.81;;;23.99;79.36
9764;BME280;4921;43.214;27.936;2022-08-02T03:38:53;100614.19;;;24.04;79.87
9764;BME280;4921;43.214;27.936;2022-08-02T03:41:22;100617.88;;;24.03;79.77
9764;BME280;4921;43.214;27.936;2022-08-02T03:43:49;100620.41;;;24.04;80.01
9764;BME280;4921;43.214;27.936;2022-08-02T03:46:19;100613.59;;;24.08;79.79
9764;BME280;4921;43.214;27.936;2022-08-02T03:48:48;100611.69;;;24.09;79.28
9764;BME280;4921;43.214;27.936;2022-08-02T03:51:16;100624.34;;;24.08;79.49
9764;BME280;4921;43.214;27.936;2022-08-02T03:53:46;100617.28;;;24.07;79.74
9764;BME280;4921;43.214;27.936;2022-08-02T03:56:14;100620.41;;;24.04;80.30
9764;BME280;4921;43.214;27.936;2022-08-02T03:58:41;100623.91;;;24.05;80.16
9764;BME280;4921;43.214;27.936;2022-08-02T04:01:08;100633.84;;;24.11;80.13
9764;BME280;4921;43.214;27.936;2022-08-02T04:03:35;100638.38;;;24.10;80.48
9764;BME280;4921;43.214;27.936;2022-08-02T04:06:02;100630.94;;;24.12;80.36
9764;BME280;4921;43.214;27.936;2022-08-02T04:08:29;100625.13;;;24.15;80.00
9764;BME280;4921;43.214;27.936;2022-08-02T04:10:57;100626.19;;;24.14;80.74
9764;BME280;4921;43.214;27.936;2022-08-02T04:13:42;100622.44;;;24.15;80.57
9764;BME280;4921;43.214;27.936;2022-08-02T04:16:12;100622.03;;;24.18;80.47
9764;BME280;4921;43.214;27.936;2022-08-02T04:18:45;100624.31;;;24.21;80.62
9764;BME280;4921;43.214;27.936;2022-08-02T04:21:16;100625.34;;;24.20;80.08
9764;BME280;4921;43.214;27.936;2022-08-02T04:23:46;100627.78;;;24.22;80.30
9764;BME280;4921;43.214;27.936;2022-08-02T04:26:16;100626.38;;;24.26;80.17
9764;BME280;4921;43.214;27.936;2022-08-02T04:28:45;100618.91;;;24.28;80.24
9764;BME280;4921;43.214;27.936;2022-08-02T04:31:14;100625.31;;;24.27;80.46
9764;BME280;4921;43.214;27.936;2022-08-02T04:33:42;100615.38;;;24.34;79.82
9764;BME280;4921;43.214;27.936;2022-08-02T04:36:10;100619.09;;;24.33;80.41
9764;BME280;4921;43.214;27.936;2022-08-02T04:38:39;100605.84;;;24.38;80.12
9764;BME280;4921;43.214;27.936;2022-08-02T04:41:06;100616.81;;;24.43;80.12
9764;BME280;4921;43.214;27.936;2022-08-02T04:43:34;100622.19;;;24.43;80.01
9764;BME280;4921;43.214;27.936;2022-08-02T04:46:02;100610.81;;;24.41;80.43
9764;BME280;4921;43.214;27.936;2022-08-02T04:48:30;100610.59;;;24.43;80.88
9764;BME280;4921;43.214;27.936;2022-08-02T04:50:58;100612.03;;;24.45;80.65
9764;BME280;4921;43.214;27.936;2022-08-02T04:53:25;100617.19;;;24.47;81.17
9764;BME280;4921;43.214;27.936;2022-08-02T04:55:52;100606.63;;;24.52;80.81
9764;BME280;4921;43.214;27.936;2022-08-02T04:58:19;100605.81;;;24.45;81.37
9764;BME280;4921;43.214;27.936;2022-08-02T05:00:47;100611.00;;;24.40;81.81
9764;BME280;4921;43.214;27.936;2022-08-02T05:03:14;100606.47;;;24.40;81.78
9764;BME280;4921;43.214;27.936;2022-08-02T05:05:41;100604.78;;;24.39;82.52
9764;BME280;4921;43.214;27.936;2022-08-02T05:08:08;100608.56;;;24.32;83.11
9764;BME280;4921;43.214;27.936;2022-08-02T05:10:35;100607.56;;;24.26;83.78
9764;BME280;4921;43.214;27.936;2022-08-02T05:13:03;100603.19;;;24.25;83.96
9764;BME280;4921;43.214;27.936;2022-08-02T05:15:31;100628.41;;;24.31;84.27
9764;BME280;4921;43.214;27.936;2022-08-02T05:18:01;100625.28;;;24.34;84.70
9764;BME280;4921;43.214;27.936;2022-08-02T05:20:27;100627.75;;;24.35;84.94
9764;BME280;4921;43.214;27.936;2022-08-02T05:22:54;100621.38;;;24.36;85.09
9764;BME280;4921;43.214;27.936;2022-08-02T05:25:21;100635.00;;;24.41;85.57
9764;BME280;4921;43.214;27.936;2022-08-02T05:27:48;100639.13;;;24.44;85.68
9764;BME280;4921;43.214;27.936;2022-08-02T05:30:15;100638.94;;;24.45;85.49
9764;BME280;4921;43.214;27.936;2022-08-02T05:32:44;100644.09;;;24.47;85.57
9764;BME280;4921;43.214;27.936;2022-08-02T05:35:12;100652.75;;;24.49;85.75
9764;BME280;4921;43.214;27.936;2022-08-02T05:37:39;100647.75;;;24.59;85.44
9764;BME280;4921;43.214;27.936;2022-08-02T05:40:07;100650.66;;;24.64;85.30
9764;BME280;4921;43.214;27.936;2022-08-02T05:42:34;100659.31;;;24.72;84.87
9764;BME280;4921;43.214;27.936;2022-08-02T05:45:02;100651.25;;;24.79;86.00
9764;BME280;4921;43.214;27.936;2022-08-02T05:47:29;100666.41;;;24.54;86.64
9764;BME280;4921;43.214;27.936;2022-08-02T05:49:56;100651.31;;;24.53;88.51
9764;BME280;4921;43.214;27.936;2022-08-02T05:52:26;100648.75;;;24.71;86.66
9764;BME280;4921;43.214;27.936;2022-08-02T05:55:01;100653.28;;;24.83;84.89
9764;BME280;4921;43.214;27.936;2022-08-02T05:57:40;100649.50;;;24.97;84.25
9764;BME280;4921;43.214;27.936;2022-08-02T06:00:14;100656.88;;;25.09;85.25
9764;BME280;4921;43.214;27.936;2022-08-02T06:03:04;100660.56;;;25.21;83.39
9764;BME280;4921;43.214;27.936;2022-08-02T06:05:34;100661.75;;;25.31;82.19
9764;BME280;4921;43.214;27.936;2022-08-02T06:08:07;100661.47;;;25.39;81.49
9764;BME280;4921;43.214;27.936;2022-08-02T06:10:36;100660.81;;;25.50;79.48
9764;BME280;4921;43.214;27.936;2022-08-02T06:13:08;100664.66;;;25.61;78.70
9764;BME280;4921;43.214;27.936;2022-08-02T06:15:35;100654.69;;;25.68;78.02
9764;BME280;4921;43.214;27.936;2022-08-02T06:18:04;100663.75;;;25.73;77.21
9764;BME280;4921;43.214;27.936;2022-08-02T06:20:32;100662.66;;;25.81;76.50
9764;BME280;4921;43.214;27.936;2022-08-02T06:23:02;100669.19;;;25.92;77.23
9764;BME280;4921;43.214;27.936;2022-08-02T06:25:35;100668.13;;;25.93;77.20
9764;BME280;4921;43.214;27.936;2022-08-02T06:28:03;100679.69;;;26.00;75.71
9764;BME280;4921;43.214;27.936;2022-08-02T06:30:31;100670.13;;;26.04;75.01
9764;BME280;4921;43.214;27.936;2022-08-02T06:32:58;100655.34;;;26.13;73.49
9764;BME280;4921;43.214;27.936;2022-08-02T06:35:33;100651.97;;;26.17;74.09
9764;BME280;4921;43.214;27.936;2022-08-02T06:38:01;100650.66;;;26.26;73.17
9764;BME280;4921;43.214;27.936;2022-08-02T06:40:32;100650.59;;;26.33;71.37
9764;BME280;4921;43.214;27.936;2022-08-02T06:43:12;100656.94;;;26.38;72.14
9764;BME280;4921;43.214;27.936;2022-08-02T06:45:43;100656.88;;;26.45;71.19
9764;BME280;4921;43.214;27.936;2022-08-02T06:48:10;100657.84;;;26.51;69.38
9764;BME280;4921;43.214;27.936;2022-08-02T06:50:37;100662.34;;;26.57;68.85
9764;BME280;4921;43.214;27.936;2022-08-02T06:53:07;100659.19;;;26.60;68.69
9764;BME280;4921;43.214;27.936;2022-08-02T06:55:35;100663.66;;;26.66;67.84
9764;BME280;4921;43.214;27.936;2022-08-02T06:58:02;100656.81;;;26.70;66.67
9764;BME280;4921;43.214;27.936;2022-08-02T07:00:29;100664.84;;;26.76;66.96
9764;BME280;4921;43.214;27.936;2022-08-02T07:02:57;100664.75;;;26.83;65.70
9764;BME280;4921;43.214;27.936;2022-08-02T07:05:24;100672.16;;;26.87;64.74
9764;BME280;4921;43.214;27.936;2022-08-02T07:07:51;100666.69;;;26.94;63.41
9764;BME280;4921;43.214;27.936;2022-08-02T07:10:18;100670.56;;;26.98;62.99
9764;BME280;4921;43.214;27.936;2022-08-02T07:12:46;100675.44;;;27.07;61.58
9764;BME280;4921;43.214;27.936;2022-08-02T07:15:13;100655.72;;;27.07;62.66
9764;BME280;4921;43.214;27.936;2022-08-02T07:17:40;100663.63;;;27.20;63.98
9764;BME280;4921;43.214;27.936;2022-08-02T07:20:08;100665.66;;;27.25;61.83
9764;BME280;4921;43.214;27.936;2022-08-02T07:22:35;100670.94;;;27.31;60.29
9764;BME280;4921;43.214;27.936;2022-08-02T07:25:03;100671.72;;;27.38;60.41
9764;BME280;4921;43.214;27.936;2022-08-02T07:27:30;100677.88;;;27.45;59.33
9764;BME280;4921;43.214;27.936;2022-08-02T07:29:59;100678.81;;;27.51;57.70
9764;BME280;4921;43.214;27.936;2022-08-02T07:32:28;100665.78;;;27.59;57.08
9764;BME280;4921;43.214;27.936;2022-08-02T07:34:56;100672.75;;;27.67;57.03
9764;BME280;4921;43.214;27.936;2022-08-02T07:37:25;100674.97;;;27.70;54.62
9764;BME280;4921;43.214;27.936;2022-08-02T07:39:53;100670.84;;;27.67;57.48
9764;BME280;4921;43.214;27.936;2022-08-02T07:42:19;100676.97;;;27.74;56.21
9764;BME280;4921;43.214;27.936;2022-08-02T07:44:47;100675.44;;;27.78;54.90
9764;BME280;4921;43.214;27.936;2022-08-02T07:47:15;100678.41;;;27.77;55.25
9764;BME280;4921;43.214;27.936;2022-08-02T07:49:42;100679.56;;;27.81;53.86
9764;BME280;4921;43.214;27.936;2022-08-02T07:52:27;100670.53;;;27.87;53.63
9764;BME280;4921;43.214;27.936;2022-08-02T07:54:54;100658.88;;;27.75;54.05
9764;BME280;4921;43.214;27.936;2022-08-02T07:57:21;100675.47;;;27.90;53.46
9764;BME280;4921;43.214;27.936;2022-08-02T07:59:49;100678.06;;;27.97;54.07
9764;BME280;4921;43.214;27.936;2022-08-02T08:02:18;100679.34;;;27.94;53.29
9764;BME280;4921;43.214;27.936;2022-08-02T08:04:44;100675.97;;;27.99;52.84
9764;BME280;4921;43.214;27.936;2022-08-02T08:07:11;100676.56;;;28.01;52.92
9764;BME280;4921;43.214;27.936;2022-08-02T08:09:38;100680.69;;;28.03;53.22
9764;BME280;4921;43.214;27.936;2022-08-02T08:12:06;100676.59;;;28.12;52.82
9764;BME280;4921;43.214;27.936;2022-08-02T08:14:34;100677.88;;;28.10;54.29
9764;BME280;4921;43.214;27.936;2022-08-02T08:17:01;100671.19;;;28.12;53.88
9764;BME280;4921;43.214;27.936;2022-08-02T08:19:29;100675.66;;;28.18;53.21
9764;BME280;4921;43.214;27.936;2022-08-02T08:21:56;100672.34;;;28.16;52.19
9764;BME280;4921;43.214;27.936;2022-08-02T08:24:25;100672.56;;;28.15;52.61
9764;BME280;4921;43.214;27.936;2022-08-02T08:26:52;100666.69;;;28.29;51.59
9764;BME280;4921;43.214;27.936;2022-08-02T08:29:19;100674.22;;;28.27;51.81
9764;BME280;4921;43.214;27.936;2022-08-02T08:31:46;100666.00;;;28.22;51.33
9764;BME280;4921;43.214;27.936;2022-08-02T08:34:14;100658.72;;;28.23;51.58
9764;BME280;4921;43.214;27.936;2022-08-02T08:36:42;100664.91;;;28.23;52.04
9764;BME280;4921;43.214;27.936;2022-08-02T08:39:09;100648.94;;;28.22;51.24
9764;BME280;4921;43.214;27.936;2022-08-02T08:41:36;100655.50;;;28.37;50.02
9764;BME280;4921;43.214;27.936;2022-08-02T08:44:04;100659.25;;;28.48;48.58
9764;BME280;4921;43.214;27.936;2022-08-02T08:46:36;100660.09;;;28.48;49.16
9764;BME280;4921;43.214;27.936;2022-08-02T08:49:06;100658.31;;;28.54;48.95
9764;BME280;4921;43.214;27.936;2022-08-02T08:51:36;100649.72;;;28.45;50.52
9764;BME280;4921;43.214;27.936;2022-08-02T08:54:06;100656.88;;;28.51;49.31
9764;BME280;4921;43.214;27.936;2022-08-02T08:56:35;100654.91;;;28.58;48.63
9764;BME280;4921;43.214;27.936;2022-08-02T08:59:03;100650.66;;;28.62;49.27
9764;BME280;4921;43.214;27.936;2022-08-02T09:01:31;100655.94;;;28.69;49.96
9764;BME280;4921;43.214;27.936;2022-08-02T09:03:58;100650.28;;;28.71;50.52
9764;BME280;4921;43.214;27.936;2022-08-02T09:06:25;100650.59;;;28.86;49.41
9764;BME280;4921;43.214;27.936;2022-08-02T09:08:52;100660.50;;;28.80;49.50
9764;BME280;4921;43.214;27.936;2022-08-02T09:11:23;100644.13;;;28.87;49.70
9764;BME280;4921;43.214;27.936;2022-08-02T09:13:52;100646.13;;;28.80;48.56
9764;BME280;4921;43.214;27.936;2022-08-02T09:16:30;100641.88;;;28.84;48.94
9764;BME280;4921;43.214;27.936;2022-08-02T09:18:57;100647.75;;;28.92;49.58
9764;BME280;4921;43.214;27.936;2022-08-02T09:21:33;100641.53;;;28.92;49.54
9764;BME280;4921;43.214;27.936;2022-08-02T09:24:01;100644.44;;;28.90;48.71
9764;BME280;4921;43.214;27.936;2022-08-02T09:26:29;100641.38;;;28.98;46.21
9764;BME280;4921;43.214;27.936;2022-08-02T09:29:00;100638.53;;;29.05;46.54
9764;BME280;4921;43.214;27.936;2022-08-02T09:31:27;100646.38;;;29.18;45.68
9764;BME280;4921;43.214;27.936;2022-08-02T09:33:55;100636.25;;;29.42;44.75
9764;BME280;4921;43.214;27.936;2022-08-02T09:36:23;100642.16;;;29.38;43.70
9764;BME280;4921;43.214;27.936;2022-08-02T09:38:55;100647.81;;;29.37;44.76
9764;BME280;4921;43.214;27.936;2022-08-02T09:41:23;100654.25;;;29.48;43.84
9764;BME280;4921;43.214;27.936;2022-08-02T09:43:53;100650.28;;;29.55;43.18
9764;BME280;4921;43.214;27.936;2022-08-02T09:46:23;100636.00;;;29.60;43.07
9764;BME280;4921;43.214;27.936;2022-08-02T09:48:52;100642.97;;;29.72;43.80
9764;BME280;4921;43.214;27.936;2022-08-02T09:51:21;100643.78;;;29.84;43.01
9764;BME280;4921;43.214;27.936;2022-08-02T09:53:49;100640.56;;;30.04;41.97
9764;BME280;4921;43.214;27.936;2022-08-02T09:56:18;100634.94;;;30.10;41.30
9764;BME280;4921;43.214;27.936;2022-08-02T09:58:45;100632.69;;;30.24;41.48
9764;BME280;4921;43.214;27.936;2022-08-02T10:01:14;100633.00;;;30.44;41.12
9764;BME280;4921;43.214;27.936;2022-08-02T10:03:55;100638.44;;;30.66;41.01
9764;BME280;4921;43.214;27.936;2022-08-02T10:06:23;100634.44;;;30.73;40.38
9764;BME280;4921;43.214;27.936;2022-08-02T10:08:50;100633.19;;;30.81;40.25
9764;BME280;4921;43.214;27.936;2022-08-02T10:11:19;100622.72;;;30.90;40.00
9764;BME280;4921;43.214;27.936;2022-08-02T10:13:47;100629.69;;;31.07;40.13
9764;BME280;4921;43.214;27.936;2022-08-02T10:16:17;100624.84;;;31.14;38.95
9764;BME280;4921;43.214;27.936;2022-08-02T10:18:48;100631.94;;;31.15;39.24
9764;BME280;4921;43.214;27.936;2022-08-02T10:21:19;100628.75;;;31.23;39.13
9764;BME280;4921;43.214;27.936;2022-08-02T10:23:48;100616.06;;;31.29;37.74
9764;BME280;4921;43.214;27.936;2022-08-02T10:26:16;100623.16;;;31.35;37.65
9764;BME280;4921;43.214;27.936;2022-08-02T10:28:46;100628.34;;;31.36;37.79
9764;BME280;4921;43.214;27.936;2022-08-02T10:31:17;100633.97;;;31.30;37.84
9764;BME280;4921;43.214;27.936;2022-08-02T10:33:47;100623.16;;;31.35;37.86
9764;BME280;4921;43.214;27.936;2022-08-02T10:36:15;100630.09;;;31.47;38.19
9764;BME280;4921;43.214;27.936;2022-08-02T10:38:43;100615.53;;;31.58;37.28
9764;BME280;4921;43.214;27.936;2022-08-02T10:41:11;100625.41;;;31.70;37.44
9764;BME280;4921;43.214;27.936;2022-08-02T10:43:43;100614.59;;;31.80;37.36
9764;BME280;4921;43.214;27.936;2022-08-02T10:46:30;100615.97;;;31.82;37.29
9764;BME280;4921;43.214;27.936;2022-08-02T10:49:16;100618.81;;;31.97;37.59
9764;BME280;4921;43.214;27.936;2022-08-02T10:52:13;100623.47;;;32.02;36.84
9764;BME280;4921;43.214;27.936;2022-08-02T10:54:41;100627.69;;;32.19;36.50
9764;BME280;4921;43.214;27.936;2022-08-02T10:57:17;100629.06;;;32.22;36.34
9764;BME280;4921;43.214;27.936;2022-08-02T10:59:45;100625.22;;;32.23;36.08
9764;BME280;4921;43.214;27.936;2022-08-02T11:02:32;100626.56;;;32.15;36.05
9764;BME280;4921;43.214;27.936;2022-08-02T11:05:08;100629.03;;;32.17;36.09
9764;BME280;4921;43.214;27.936;2022-08-02T11:07:37;100618.25;;;32.37;35.92
9764;BME280;4921;43.214;27.936;2022-08-02T11:13:11;100624.31;;;32.02;36.13
9764;BME280;4921;43.214;27.936;2022-08-02T11:15:47;100628.00;;;31.91;36.56
9764;BME280;4921;43.214;27.936;2022-08-02T11:18:16;100622.28;;;31.93;36.82
9764;BME280;4921;43.214;27.936;2022-08-02T11:20:44;100611.09;;;31.84;36.96
9764;BME280;4921;43.214;27.936;2022-08-02T11:23:33;100633.13;;;31.83;36.97
9764;BME280;4921;43.214;27.936;2022-08-02T11:26:00;100626.25;;;31.75;36.97
9764;BME280;4921;43.214;27.936;2022-08-02T11:28:30;100622.06;;;31.94;36.70
9764;BME280;4921;43.214;27.936;2022-08-02T11:30:58;100629.72;;;31.97;36.89
9764;BME280;4921;43.214;27.936;2022-08-02T11:33:33;100638.28;;;31.84;36.61
9764;BME280;4921;43.214;27.936;2022-08-02T11:36:03;100630.22;;;31.63;36.99
9764;BME280;4921;43.214;27.936;2022-08-02T11:38:30;100625.22;;;31.49;37.01
9764;BME280;4921;43.214;27.936;2022-08-02T11:40:58;100627.00;;;31.39;37.97
9764;BME280;4921;43.214;27.936;2022-08-02T11:43:28;100632.00;;;31.47;38.13
9764;BME280;4921;43.214;27.936;2022-08-02T11:45:55;100621.50;;;31.34;38.02
9764;BME280;4921;43.214;27.936;2022-08-02T11:48:41;100617.66;;;31.25;38.76
9764;BME280;4921;43.214;27.936;2022-08-02T11:51:11;100622.16;;;31.41;39.06
9764;BME280;4921;43.214;27.936;2022-08-02T11:53:43;100607.38;;;31.32;37.82
9764;BME280;4921;43.214;27.936;2022-08-02T11:56:10;100620.66;;;31.28;38.78
9764;BME280;4921;43.214;27.936;2022-08-02T11:58:38;100613.97;;;31.14;38.36
9764;BME280;4921;43.214;27.936;2022-08-02T12:01:05;100615.28;;;31.07;38.66
9764;BME280;4921;43.214;27.936;2022-08-02T12:03:34;100618.25;;;31.05;38.50
9764;BME280;4921;43.214;27.936;2022-08-02T12:06:03;100616.13;;;31.12;38.97
9764;BME280;4921;43.214;27.936;2022-08-02T12:08:31;100624.25;;;31.07;38.36
9764;BME280;4921;43.214;27.936;2022-08-02T12:11:00;100619.53;;;30.98;38.56
9764;BME280;4921;43.214;27.936;2022-08-02T12:13:28;100630.66;;;30.96;38.51
9764;BME280;4921;43.214;27.936;2022-08-02T12:16:09;100619.25;;;30.99;38.81
9764;BME280;4921;43.214;27.936;2022-08-02T12:18:50;100624.97;;;30.98;39.10
9764;BME280;4921;43.214;27.936;2022-08-02T12:21:36;100610.13;;;31.05;37.90
9764;BME280;4921;43.214;27.936;2022-08-02T12:24:03;100612.78;;;31.00;37.93
9764;BME280;4921;43.214;27.936;2022-08-02T12:26:40;100606.22;;;30.96;38.20
9764;BME280;4921;43.214;27.936;2022-08-02T12:29:08;100619.22;;;30.94;38.52
9764;BME280;4921;43.214;27.936;2022-08-02T12:31:40;100619.31;;;31.04;38.11
9764;BME280;4921;43.214;27.936;2022-08-02T12:34:12;100612.38;;;31.13;38.58
9764;BME280;4921;43.214;27.936;2022-08-02T12:36:44;100610.28;;;31.25;37.64
9764;BME280;4921;43.214;27.936;2022-08-02T12:39:38;100612.84;;;31.05;37.88
9764;BME280;4921;43.214;27.936;2022-08-02T12:42:06;100603.56;;;31.01;37.70
9764;BME280;4921;43.214;27.936;2022-08-02T12:44:35;100597.84;;;31.03;38.86
9764;BME280;4921;43.214;27.936;2022-08-02T12:47:05;100601.41;;;31.03;38.89
9764;BME280;4921;43.214;27.936;2022-08-02T12:49:32;100603.19;;;30.93;38.18
9764;BME280;4921;43.214;27.936;2022-08-02T12:52:00;100609.69;;;30.92;38.51
9764;BME280;4921;43.214;27.936;2022-08-02T12:54:30;100612.91;;;30.88;38.03
9764;BME280;4921;43.214;27.936;2022-08-02T12:57:08;100600.59;;;30.81;38.69
9764;BME280;4921;43.214;27.936;2022-08-02T12:59:37;100608.44;;;30.77;38.35
9764;BME280;4921;43.214;27.936;2022-08-02T13:02:06;100601.59;;;30.75;37.80
9764;BME280;4921;43.214;27.936;2022-08-02T13:04:34;100613.53;;;30.74;37.32
9764;BME280;4921;43.214;27.936;2022-08-02T13:07:03;100601.91;;;30.78;36.63
9764;BME280;4921;43.214;27.936;2022-08-02T13:09:35;100614.16;;;30.81;36.95
9764;BME280;4921;43.214;27.936;2022-08-02T13:12:03;100609.78;;;30.80;37.02
9764;BME280;4921;43.214;27.936;2022-08-02T13:14:31;100604.34;;;30.80;36.85
9764;BME280;4921;43.214;27.936;2022-08-02T13:16:58;100600.69;;;30.86;36.47